sensor_id;sensor_type;location;lat;lon;timestamp;P1;durP1;ratioP1;P2;durP2;ratioP2
38220;SDS011;24023;51.280;7.148;2023-01-25T00:00:12;13.8;;;12.7;;
38220;SDS011;24023;51.280;7.148;2023-01-25T00:05:06;13.8;;;12.7;;
38220;SDS011;24023;51.280;7.148;2023-01-25T00:10:08;13.7;;;12.5;;
38220;SDS011;24023;51.280;7.148;2023-01-25T00:15:07;13.8;;;12.6;;
38220;SDS011;24023;51.280;7.148;2023-01-25T00:20:08;13.8;;;12.6;;
38220;SDS011;24023;51.280;7.148;2023-01-25T00:25:07;13.8;;;12.6;;
38220;SDS011;24023;51.280;7.148;2023-01-25T00:30:09;15.3;;;13.9;;
38220;SDS011;24023;51.280;7.148;2023-01-25T00:35:07;15.3;;;13.9;;
38220;SDS011;24023;51.280;7.148;2023-01-25T00:40:08;15.3;;;13.9;;
38220;SDS011;24023;51.280;7.148;2023-01-25T00:45:09;15.0;;;13.6;;
38220;SDS011;24023;51.280;7.148;2023-01-25T00:50:08;15.0;;;13.6;;
38220;SDS011;24023;51.280;7.148;2023-01-25T00:55:06;15.9;;;14.5;;
38220;SDS011;24023;51.280;7.148;2023-01-25T01:00:10;15.9;;;14.5;;
38220;SDS011;24023;51.280;7.148;2023-01-25T01:05:06;15.3;;;13.8;;
38220;SDS011;24023;51.280;7.148;2023-01-25T01:10:08;15.3;;;13.8;;
38220;SDS011;24023;51.280;7.148;2023-01-25T01:15:07;16.1;;;14.5;;
38220;SDS011;24023;51.280;7.148;2023-01-25T01:20:08;16.1;;;14.5;;
38220;SDS011;24023;51.280;7.148;2023-01-25T01:25:07;16.1;;;14.5;;
38220;SDS011;24023;51.280;7.148;2023-01-25T01:30:09;18.0;;;16.2;;
38220;SDS011;24023;51.280;7.148;2023-01-25T01:35:06;18.0;;;16.2;;
38220;SDS011;24023;51.280;7.148;2023-01-25T01:40:08;18.0;;;16.2;;
38220;SDS011;24023;51.280;7.148;2023-01-25T01:45:42;18.0;;;16.2;;
38220;SDS011;24023;51.280;7.148;2023-01-25T01:50:11;18.0;;;16.2;;
38220;SDS011;24023;51.280;7.148;2023-01-25T01:55:07;18.0;;;16.2;;
38220;SDS011;24023;51.280;7.148;2023-01-25T02:00:11;18.6;;;16.7;;
38220;SDS011;24023;51.280;7.148;2023-01-25T02:05:08;18.6;;;16.7;;
38220;SDS011;24023;51.280;7.148;2023-01-25T02:10:09;18.6;;;16.7;;
38220;SDS011;24023;51.280;7.148;2023-01-25T02:15:07;20.1;;;17.2;;
38220;SDS011;24023;51.280;7.148;2023-01-25T02:20:09;17.7;;;15.4;;
38220;SDS011;24023;51.280;7.148;2023-01-25T02:25:06;17.7;;;15.4;;
38220;SDS011;24023;51.280;7.148;2023-01-25T02:30:10;19.7;;;16.2;;
38220;SDS011;24023;51.280;7.148;2023-01-25T02:35:07;19.7;;;16.2;;
38220;SDS011;24023;51.280;7.148;2023-01-25T02:40:08;17.5;;;15.3;;
38220;SDS011;24023;51.280;7.148;2023-01-25T02:45:10;17.5;;;15.3;;
38220;SDS011;24023;51.280;7.148;2023-01-25T02:50:08;17.5;;;15.3;;
38220;SDS011;24023;51.280;7.148;2023-01-25T02:55:06;18.1;;;14.9;;
38220;SDS011;24023;51.280;7.148;2023-01-25T03:00:11;14.6;;;13.0;;
38220;SDS011;24023;51.280;7.148;2023-01-25T03:05:07;14.6;;;13.0;;
38220;SDS011;24023;51.280;7.148;2023-01-25T03:10:08;14.6;;;13.0;;
38220;SDS011;24023;51.280;7.148;2023-01-25T03:15:08;14.6;;;13.0;;
38220;SDS011;24023;51.280;7.148;2023-01-25T03:20:08;13.5;;;11.8;;
38220;SDS011;24023;51.280;7.148;2023-01-25T03:25:07;13.5;;;11.8;;
38220;SDS011;24023;51.280;7.148;2023-01-25T03:30:09;13.5;;;11.8;;
38220;SDS011;24023;51.280;7.148;2023-01-25T03:35:06;13.9;;;11.9;;
38220;SDS011;24023;51.280;7.148;2023-01-25T03:40:08;13.9;;;11.9;;
38220;SDS011;24023;51.280;7.148;2023-01-25T03:45:13;13.5;;;12.1;;
38220;SDS011;24023;51.280;7.148;2023-01-25T03:50:08;13.5;;;12.1;;
38220;SDS011;24023;51.280;7.148;2023-01-25T03:55:06;13.2;;;10.8;;
38220;SDS011;24023;51.280;7.148;2023-01-25T04:00:12;13.2;;;10.8;;
38220;SDS011;24023;51.280;7.148;2023-01-25T04:05:07;13.2;;;10.8;;
38220;SDS011;24023;51.280;7.148;2023-01-25T04:10:08;13.6;;;11.7;;
38220;SDS011;24023;51.280;7.148;2023-01-25T04:15:08;13.6;;;11.7;;
38220;SDS011;24023;51.280;7.148;2023-01-25T04:20:08;14.4;;;12.0;;
38220;SDS011;24023;51.280;7.148;2023-01-25T04:25:07;14.4;;;12.0;;
38220;SDS011;24023;51.280;7.148;2023-01-25T04:30:09;14.4;;;12.0;;
38220;SDS011;24023;51.280;7.148;2023-01-25T04:35:07;14.0;;;12.0;;
38220;SDS011;24023;51.280;7.148;2023-01-25T04:40:08;14.0;;;12.0;;
38220;SDS011;24023;51.280;7.148;2023-01-25T04:45:09;14.4;;;11.2;;
38220;SDS011;24023;51.280;7.148;2023-01-25T04:50:08;15.3;;;12.2;;
38220;SDS011;24023;51.280;7.148;2023-01-25T04:55:06;15.3;;;12.2;;
38220;SDS011;24023;51.280;7.148;2023-01-25T05:00:11;15.3;;;12.2;;
38220;SDS011;24023;51.280;7.148;2023-01-25T05:05:06;15.3;;;12.2;;
38220;SDS011;24023;51.280;7.148;2023-01-25T05:10:09;30.3;;;10.4;;
38220;SDS011;24023;51.280;7.148;2023-01-25T05:15:08;30.3;;;10.4;;
38220;SDS011;24023;51.280;7.148;2023-01-25T05:20:08;16.2;;;12.4;;
38220;SDS011;24023;51.280;7.148;2023-01-25T05:26:59;16.2;;;12.4;;
38220;SDS011;24023;51.280;7.148;2023-01-25T05:30:09;23.8;;;13.3;;
38220;SDS011;24023;51.280;7.148;2023-01-25T05:35:06;23.8;;;13.3;;
38220;SDS011;24023;51.280;7.148;2023-01-25T05:40:12;46.9;;;12.2;;
38220;SDS011;24023;51.280;7.148;2023-01-25T05:45:12;46.9;;;12.2;;
38220;SDS011;24023;51.280;7.148;2023-01-25T05:50:08;59.3;;;13.8;;
38220;SDS011;24023;51.280;7.148;2023-01-25T05:55:07;59.3;;;13.8;;
38220;SDS011;24023;51.280;7.148;2023-01-25T06:00:11;31.3;;;13.8;;
38220;SDS011;24023;51.280;7.148;2023-01-25T06:05:06;31.3;;;13.8;;
38220;SDS011;24023;51.280;7.148;2023-01-25T06:10:08;44.9;;;12.1;;
38220;SDS011;24023;51.280;7.148;2023-01-25T06:15:08;44.9;;;12.1;;
38220;SDS011;24023;51.280;7.148;2023-01-25T06:20:08;28.1;;;10.7;;
38220;SDS011;24023;51.280;7.148;2023-01-25T06:25:06;28.1;;;10.7;;
38220;SDS011;24023;51.280;7.148;2023-01-25T06:30:09;27.7;;;12.2;;
38220;SDS011;24023;51.280;7.148;2023-01-25T06:35:07;27.7;;;12.2;;
38220;SDS011;24023;51.280;7.148;2023-01-25T06:40:08;41.9;;;11.3;;
38220;SDS011;24023;51.280;7.148;2023-01-25T06:45:11;41.9;;;11.3;;
38220;SDS011;24023;51.280;7.148;2023-01-25T06:50:08;33.6;;;11.5;;
38220;SDS011;24023;51.280;7.148;2023-01-25T06:55:07;33.6;;;11.5;;
38220;SDS011;24023;51.280;7.148;2023-01-25T07:00:11;57.0;;;13.2;;
38220;SDS011;24023;51.280;7.148;2023-01-25T07:05:07;57.0;;;13.2;;
38220;SDS011;24023;51.280;7.148;2023-01-25T07:10:08;47.6;;;13.1;;
38220;SDS011;24023;51.280;7.148;2023-01-25T07:15:08;47.6;;;13.1;;
38220;SDS011;24023;51.280;7.148;2023-01-25T07:20:08;33.2;;;12.3;;
38220;SDS011;24023;51.280;7.148;2023-01-25T07:25:06;33.2;;;12.3;;
38220;SDS011;24023;51.280;7.148;2023-01-25T07:30:09;34.7;;;12.3;;
38220;SDS011;24023;51.280;7.148;2023-01-25T07:35:07;34.7;;;12.3;;
38220;SDS011;24023;51.280;7.148;2023-01-25T07:40:08;24.3;;;10.6;;
38220;SDS011;24023;51.280;7.148;2023-01-25T07:45:10;24.3;;;10.6;;
38220;SDS011;24023;51.280;7.148;2023-01-25T07:50:08;52.5;;;11.5;;
38220;SDS011;24023;51.280;7.148;2023-01-25T07:55:07;52.5;;;11.5;;
38220;SDS011;24023;51.280;7.148;2023-01-25T08:00:11;33.4;;;11.3;;
38220;SDS011;24023;51.280;7.148;2023-01-25T08:05:07;33.4;;;11.3;;
38220;SDS011;24023;51.280;7.148;2023-01-25T08:10:08;41.2;;;11.3;;
38220;SDS011;24023;51.280;7.148;2023-01-25T08:15:08;41.2;;;11.3;;
38220;SDS011;24023;51.280;7.148;2023-01-25T08:20:08;39.8;;;12.0;;
38220;SDS011;24023;51.280;7.148;2023-01-25T08:25:07;39.8;;;12.0;;
38220;SDS011;24023;51.280;7.148;2023-01-25T08:30:09;21.9;;;12.4;;
38220;SDS011;24023;51.280;7.148;2023-01-25T08:35:07;21.9;;;12.4;;
38220;SDS011;24023;51.280;7.148;2023-01-25T08:40:08;20.2;;;12.2;;
38220;SDS011;24023;51.280;7.148;2023-01-25T08:45:09;20.2;;;12.2;;
38220;SDS011;24023;51.280;7.148;2023-01-25T08:50:08;42.9;;;11.7;;
38220;SDS011;24023;51.280;7.148;2023-01-25T08:55:07;42.9;;;11.7;;
38220;SDS011;24023;51.280;7.148;2023-01-25T09:00:12;36.9;;;11.5;;
38220;SDS011;24023;51.280;7.148;2023-01-25T09:05:07;36.9;;;11.5;;
38220;SDS011;24023;51.280;7.148;2023-01-25T09:10:08;20.8;;;11.4;;
38220;SDS011;24023;51.280;7.148;2023-01-25T09:15:08;20.8;;;11.4;;
38220;SDS011;24023;51.280;7.148;2023-01-25T09:20:08;30.0;;;13.1;;
38220;SDS011;24023;51.280;7.148;2023-01-25T09:25:06;30.0;;;13.1;;
38220;SDS011;24023;51.280;7.148;2023-01-25T09:30:10;36.9;;;11.8;;
38220;SDS011;24023;51.280;7.148;2023-01-25T09:35:06;36.9;;;11.8;;
38220;SDS011;24023;51.280;7.148;2023-01-25T09:40:09;29.2;;;13.9;;
38220;SDS011;24023;51.280;7.148;2023-01-25T09:45:14;29.2;;;13.9;;
38220;SDS011;24023;51.280;7.148;2023-01-25T09:50:14;22.2;;;13.3;;
38220;SDS011;24023;51.280;7.148;2023-01-25T09:55:09;22.2;;;13.3;;
38220;SDS011;24023;51.280;7.148;2023-01-25T10:00:12;20.1;;;12.6;;
38220;SDS011;24023;51.280;7.148;2023-01-25T10:05:07;20.1;;;12.6;;
38220;SDS011;24023;51.280;7.148;2023-01-25T10:10:10;25.1;;;13.5;;
38220;SDS011;24023;51.280;7.148;2023-01-25T10:15:11;25.1;;;13.5;;
38220;SDS011;24023;51.280;7.148;2023-01-25T10:20:09;18.2;;;13.9;;
38220;SDS011;24023;51.280;7.148;2023-01-25T10:25:16;18.2;;;13.9;;
38220;SDS011;24023;51.280;7.148;2023-01-25T10:30:19;21.2;;;14.9;;
38220;SDS011;24023;51.280;7.148;2023-01-25T10:35:11;21.2;;;14.9;;
38220;SDS011;24023;51.280;7.148;2023-01-25T10:40:12;27.6;;;15.7;;
38220;SDS011;24023;51.280;7.148;2023-01-25T10:45:10;27.6;;;15.7;;
38220;SDS011;24023;51.280;7.148;2023-01-25T10:50:08;27.3;;;15.3;;
38220;SDS011;24023;51.280;7.148;2023-01-25T10:55:14;27.3;;;15.3;;
38220;SDS011;24023;51.280;7.148;2023-01-25T11:00:18;27.3;;;17.0;;
38220;SDS011;24023;51.280;7.148;2023-01-25T11:05:25;27.3;;;17.0;;
38220;SDS011;24023;51.280;7.148;2023-01-25T11:10:08;24.0;;;15.9;;
38220;SDS011;24023;51.280;7.148;2023-01-25T11:15:21;24.0;;;15.9;;
38220;SDS011;24023;51.280;7.148;2023-01-25T11:20:15;27.1;;;17.8;;
38220;SDS011;24023;51.280;7.148;2023-01-25T11:25:24;27.1;;;17.8;;
38220;SDS011;24023;51.280;7.148;2023-01-25T11:30:10;32.3;;;18.5;;
38220;SDS011;24023;51.280;7.148;2023-01-25T11:35:11;32.3;;;18.5;;
38220;SDS011;24023;51.280;7.148;2023-01-25T11:40:12;45.5;;;19.2;;
38220;SDS011;24023;51.280;7.148;2023-01-25T11:45:47;45.5;;;19.2;;
38220;SDS011;24023;51.280;7.148;2023-01-25T11:50:10;50.3;;;21.1;;
38220;SDS011;24023;51.280;7.148;2023-01-25T11:55:10;50.3;;;21.1;;
38220;SDS011;24023;51.280;7.148;2023-01-25T12:00:19;44.7;;;21.5;;
38220;SDS011;24023;51.280;7.148;2023-01-25T12:05:11;44.7;;;21.5;;
38220;SDS011;24023;51.280;7.148;2023-01-25T12:10:14;44.7;;;21.5;;
38220;SDS011;24023;51.280;7.148;2023-01-25T12:15:13;45.1;;;21.3;;
38220;SDS011;24023;51.280;7.148;2023-01-25T12:20:16;36.9;;;20.9;;
38220;SDS011;24023;51.280;7.148;2023-01-25T12:25:11;36.9;;;20.9;;
38220;SDS011;24023;51.280;7.148;2023-01-25T12:30:12;42.0;;;23.0;;
38220;SDS011;24023;51.280;7.148;2023-01-25T12:35:13;42.0;;;23.0;;
38220;SDS011;24023;51.280;7.148;2023-01-25T12:40:08;50.4;;;22.6;;
38220;SDS011;24023;51.280;7.148;2023-01-25T12:45:10;50.4;;;22.6;;
38220;SDS011;24023;51.280;7.148;2023-01-25T12:50:12;32.4;;;22.3;;
38220;SDS011;24023;51.280;7.148;2023-01-25T12:55:11;32.4;;;22.3;;
38220;SDS011;24023;51.280;7.148;2023-01-25T13:00:15;32.4;;;22.3;;
38220;SDS011;24023;51.280;7.148;2023-01-25T13:05:09;32.4;;;22.3;;
38220;SDS011;24023;51.280;7.148;2023-01-25T13:10:12;31.3;;;22.3;;
38220;SDS011;24023;51.280;7.148;2023-01-25T13:15:32;31.3;;;22.3;;
38220;SDS011;24023;51.280;7.148;2023-01-25T13:20:45;37.5;;;21.5;;
38220;SDS011;24023;51.280;7.148;2023-01-25T13:25:07;37.5;;;21.5;;
38220;SDS011;24023;51.280;7.148;2023-01-25T13:30:24;31.4;;;22.7;;
38220;SDS011;24023;51.280;7.148;2023-01-25T13:35:23;31.4;;;22.7;;
38220;SDS011;24023;51.280;7.148;2023-01-25T13:40:21;32.7;;;21.9;;
38220;SDS011;24023;51.280;7.148;2023-01-25T13:45:12;32.7;;;21.9;;
38220;SDS011;24023;51.280;7.148;2023-01-25T13:50:08;29.5;;;23.2;;
38220;SDS011;24023;51.280;7.148;2023-01-25T13:55:15;29.5;;;23.2;;
38220;SDS011;24023;51.280;7.148;2023-01-25T14:00:13;27.5;;;19.5;;
38220;SDS011;24023;51.280;7.148;2023-01-25T14:05:14;27.5;;;19.5;;
38220;SDS011;24023;51.280;7.148;2023-01-25T14:10:08;26.6;;;20.9;;
38220;SDS011;24023;51.280;7.148;2023-01-25T14:15:16;26.6;;;20.9;;
38220;SDS011;24023;51.280;7.148;2023-01-25T14:20:15;32.6;;;22.1;;
38220;SDS011;24023;51.280;7.148;2023-01-25T14:25:09;32.6;;;22.1;;
38220;SDS011;24023;51.280;7.148;2023-01-25T14:30:14;28.7;;;21.3;;
38220;SDS011;24023;51.280;7.148;2023-01-25T14:35:23;28.7;;;21.3;;
38220;SDS011;24023;51.280;7.148;2023-01-25T14:40:09;32.6;;;23.7;;
38220;SDS011;24023;51.280;7.148;2023-01-25T14:45:10;32.6;;;23.7;;
38220;SDS011;24023;51.280;7.148;2023-01-25T14:50:40;33.6;;;24.6;;
38220;SDS011;24023;51.280;7.148;2023-01-25T14:55:06;33.6;;;24.6;;
38220;SDS011;24023;51.280;7.148;2023-01-25T15:00:18;38.0;;;27.5;;
38220;SDS011;24023;51.280;7.148;2023-01-25T15:05:15;38.0;;;27.5;;
38220;SDS011;24023;51.280;7.148;2023-01-25T15:10:14;31.6;;;24.9;;
38220;SDS011;24023;51.280;7.148;2023-01-25T15:15:16;31.6;;;24.9;;
38220;SDS011;24023;51.280;7.148;2023-01-25T15:20:37;40.0;;;28.2;;
38220;SDS011;24023;51.280;7.148;2023-01-25T15:25:09;40.0;;;28.2;;
38220;SDS011;24023;51.280;7.148;2023-01-25T15:30:10;68.3;;;28.5;;
38220;SDS011;24023;51.280;7.148;2023-01-25T15:35:10;68.3;;;28.5;;
38220;SDS011;24023;51.280;7.148;2023-01-25T15:40:07;40.2;;;28.6;;
38220;SDS011;24023;51.280;7.148;2023-01-25T15:45:10;40.2;;;28.6;;
38220;SDS011;24023;51.280;7.148;2023-01-25T15:50:12;51.2;;;29.9;;
38220;SDS011;24023;51.280;7.148;2023-01-25T15:55:07;51.2;;;29.9;;
38220;SDS011;24023;51.280;7.148;2023-01-25T16:00:14;40.7;;;28.2;;
38220;SDS011;24023;51.280;7.148;2023-01-25T16:05:06;40.7;;;28.2;;
38220;SDS011;24023;51.280;7.148;2023-01-25T16:10:10;45.4;;;30.8;;
38220;SDS011;24023;51.280;7.148;2023-01-25T16:15:07;45.4;;;30.8;;
38220;SDS011;24023;51.280;7.148;2023-01-25T16:20:11;61.1;;;31.7;;
38220;SDS011;24023;51.280;7.148;2023-01-25T16:25:08;61.1;;;31.7;;
38220;SDS011;24023;51.280;7.148;2023-01-25T16:30:15;45.6;;;29.9;;
38220;SDS011;24023;51.280;7.148;2023-01-25T16:35:06;45.6;;;29.9;;
38220;SDS011;24023;51.280;7.148;2023-01-25T16:40:13;48.6;;;34.5;;
38220;SDS011;24023;51.280;7.148;2023-01-25T16:45:09;48.6;;;34.5;;
38220;SDS011;24023;51.280;7.148;2023-01-25T16:50:09;77.8;;;33.6;;
38220;SDS011;24023;51.280;7.148;2023-01-25T16:55:07;77.8;;;33.6;;
38220;SDS011;24023;51.280;7.148;2023-01-25T17:00:12;54.2;;;33.3;;
38220;SDS011;24023;51.280;7.148;2023-01-25T17:05:06;54.2;;;33.3;;
38220;SDS011;24023;51.280;7.148;2023-01-25T17:10:08;44.0;;;28.8;;
38220;SDS011;24023;51.280;7.148;2023-01-25T17:15:07;44.0;;;28.8;;
38220;SDS011;24023;51.280;7.148;2023-01-25T17:20:08;67.1;;;30.3;;
38220;SDS011;24023;51.280;7.148;2023-01-25T17:25:06;67.1;;;30.3;;
38220;SDS011;24023;51.280;7.148;2023-01-25T17:30:09;48.1;;;31.8;;
38220;SDS011;24023;51.280;7.148;2023-01-25T17:35:07;48.1;;;31.8;;
38220;SDS011;24023;51.280;7.148;2023-01-25T17:40:08;34.9;;;26.9;;
38220;SDS011;24023;51.280;7.148;2023-01-25T17:45:10;34.9;;;26.9;;
38220;SDS011;24023;51.280;7.148;2023-01-25T17:50:08;40.0;;;26.8;;
38220;SDS011;24023;51.280;7.148;2023-01-25T17:55:06;40.0;;;26.8;;
38220;SDS011;24023;51.280;7.148;2023-01-25T18:00:11;32.1;;;22.4;;
38220;SDS011;24023;51.280;7.148;2023-01-25T18:05:07;32.1;;;22.4;;
38220;SDS011;24023;51.280;7.148;2023-01-25T18:10:08;29.9;;;22.4;;
38220;SDS011;24023;51.280;7.148;2023-01-25T18:15:07;29.9;;;22.4;;
38220;SDS011;24023;51.280;7.148;2023-01-25T18:20:10;31.6;;;23.2;;
38220;SDS011;24023;51.280;7.148;2023-01-25T18:25:06;31.6;;;23.2;;
38220;SDS011;24023;51.280;7.148;2023-01-25T18:30:21;37.1;;;23.5;;
38220;SDS011;24023;51.280;7.148;2023-01-25T18:35:07;37.1;;;23.5;;
38220;SDS011;24023;51.280;7.148;2023-01-25T18:40:08;29.5;;;22.2;;
38220;SDS011;24023;51.280;7.148;2023-01-25T18:45:09;29.5;;;22.2;;
38220;SDS011;24023;51.280;7.148;2023-01-25T18:50:08;28.6;;;21.7;;
38220;SDS011;24023;51.280;7.148;2023-01-25T18:55:06;28.6;;;21.7;;
38220;SDS011;24023;51.280;7.148;2023-01-25T19:00:14;29.0;;;21.9;;
38220;SDS011;24023;51.280;7.148;2023-01-25T19:05:06;29.0;;;21.9;;
38220;SDS011;24023;51.280;7.148;2023-01-25T19:10:08;34.0;;;20.8;;
38220;SDS011;24023;51.280;7.148;2023-01-25T19:15:08;34.0;;;20.8;;
38220;SDS011;24023;51.280;7.148;2023-01-25T19:20:08;30.3;;;21.8;;
38220;SDS011;24023;51.280;7.148;2023-01-25T19:25:06;30.3;;;21.8;;
38220;SDS011;24023;51.280;7.148;2023-01-25T19:30:09;31.1;;;22.9;;
38220;SDS011;24023;51.280;7.148;2023-01-25T19:35:06;31.1;;;22.9;;
38220;SDS011;24023;51.280;7.148;2023-01-25T19:40:08;30.5;;;20.7;;
38220;SDS011;24023;51.280;7.148;2023-01-25T19:45:09;30.5;;;20.7;;
38220;SDS011;24023;51.280;7.148;2023-01-25T19:50:08;37.0;;;22.6;;
38220;SDS011;24023;51.280;7.148;2023-01-25T19:55:07;37.0;;;22.6;;
38220;SDS011;24023;51.280;7.148;2023-01-25T20:00:12;40.2;;;21.6;;
38220;SDS011;24023;51.280;7.148;2023-01-25T20:05:07;40.2;;;21.6;;
38220;SDS011;24023;51.280;7.148;2023-01-25T20:10:08;30.8;;;22.3;;
38220;SDS011;24023;51.280;7.148;2023-01-25T20:15:07;30.8;;;22.3;;
38220;SDS011;24023;51.280;7.148;2023-01-25T20:20:08;28.9;;;20.2;;
38220;SDS011;24023;51.280;7.148;2023-01-25T20:25:07;28.9;;;20.2;;
38220;SDS011;24023;51.280;7.148;2023-01-25T20:30:09;27.8;;;20.3;;
38220;SDS011;24023;51.280;7.148;2023-01-25T20:35:07;27.8;;;20.3;;
38220;SDS011;24023;51.280;7.148;2023-01-25T20:40:08;31.1;;;21.0;;
38220;SDS011;24023;51.280;7.148;2023-01-25T20:45:10;31.1;;;21.0;;
38220;SDS011;24023;51.280;7.148;2023-01-25T20:50:08;28.9;;;20.4;;
38220;SDS011;24023;51.280;7.148;2023-01-25T20:55:07;28.9;;;20.4;;
38220;SDS011;24023;51.280;7.148;2023-01-25T21:00:10;25.9;;;17.5;;
38220;SDS011;24023;51.280;7.148;2023-01-25T21:05:07;25.9;;;17.5;;
38220;SDS011;24023;51.280;7.148;2023-01-25T21:10:08;27.7;;;19.1;;
38220;SDS011;24023;51.280;7.148;2023-01-25T21:15:08;27.7;;;19.1;;
38220;SDS011;24023;51.280;7.148;2023-01-25T21:20:08;39.1;;;18.8;;
38220;SDS011;24023;51.280;7.148;2023-01-25T21:25:07;39.1;;;18.8;;
38220;SDS011;24023;51.280;7.148;2023-01-25T21:30:09;31.9;;;18.9;;
38220;SDS011;24023;51.280;7.148;2023-01-25T21:35:07;31.9;;;18.9;;
38220;SDS011;24023;51.280;7.148;2023-01-25T21:40:08;62.2;;;19.4;;
38220;SDS011;24023;51.280;7.148;2023-01-25T21:46:25;62.2;;;19.4;;
38220;SDS011;24023;51.280;7.148;2023-01-25T21:55:07;36.6;;;17.6;;
38220;SDS011;24023;51.280;7.148;2023-01-25T22:00:13;34.5;;;17.6;;
38220;SDS011;24023;51.280;7.148;2023-01-25T22:05:07;34.5;;;17.6;;
38220;SDS011;24023;51.280;7.148;2023-01-25T22:10:08;24.4;;;17.0;;
38220;SDS011;24023;51.280;7.148;2023-01-25T22:15:08;24.4;;;17.0;;
38220;SDS011;24023;51.280;7.148;2023-01-25T22:20:08;27.0;;;17.0;;
38220;SDS011;24023;51.280;7.148;2023-01-25T22:25:06;27.0;;;17.0;;
38220;SDS011;24023;51.280;7.148;2023-01-25T22:30:09;29.7;;;20.5;;
38220;SDS011;24023;51.280;7.148;2023-01-25T22:35:07;29.7;;;20.5;;
38220;SDS011;24023;51.280;7.148;2023-01-25T22:40:08;34.5;;;21.5;;
38220;SDS011;24023;51.280;7.148;2023-01-25T22:45:09;34.5;;;21.5;;
38220;SDS011;24023;51.280;7.148;2023-01-25T22:50:08;34.5;;;21.5;;
38220;SDS011;24023;51.280;7.148;2023-01-25T22:55:06;33.2;;;22.4;;
38220;SDS011;24023;51.280;7.148;2023-01-25T23:00:21;33.2;;;22.4;;
38220;SDS011;24023;51.280;7.148;2023-01-25T23:05:08;33.6;;;23.6;;
38220;SDS011;24023;51.280;7.148;2023-01-25T23:10:08;33.6;;;23.6;;
38220;SDS011;24023;51.280;7.148;2023-01-25T23:15:14;33.2;;;23.4;;
38220;SDS011;24023;51.280;7.148;2023-01-25T23:20:08;39.9;;;25.4;;
38220;SDS011;24023;51.280;7.148;2023-01-25T23:25:08;39.9;;;25.4;;
38220;SDS011;24023;51.280;7.148;2023-01-25T23:30:09;43.4;;;28.5;;
38220;SDS011;24023;51.280;7.148;2023-01-25T23:35:06;43.4;;;28.5;;
38220;SDS011;24023;51.280;7.148;2023-01-25T23:40:08;43.4;;;28.5;;
38220;SDS011;24023;51.280;7.148;2023-01-25T23:45:11;43.4;;;28.5;;
38220;SDS011;24023;51.280;7.148;2023-01-25T23:50:08;41.0;;;28.0;;
38220;SDS011;24023;51.280;7.148;2023-01-25T23:55:07;41.0;;;28.0;;
